< < Back
Terminal Aerodrome Forecast


Current Version              Previous Versions:   1  2  3  4  5  6  7  8  9  

Terminal Aerodrome Forecast

839
FTUS44 KHUN 201720
TAFHSV
TAF
KHSV 201720Z 2018/2118 25005KT P6SM FEW040 SCT120 SCT250
     FM210100 VRB02KT P6SM SCT250
     FM211400 VRB05KT P6SM SKC=

Latest METAR

303
SAUS80 KWBC 202100
MTRHSV
METAR KHSV 202053Z VRB04KT 10SM FEW110 BKN150 22/08 A3000 RMK AO2 SLP157
T02170078 56018 $


USA.gov is the U.S. government's official web portal to all federal, state and local government web resources and services.